Details for Thomas Cook Airlines at EGBB




Go Back


Latest METAR
Local Time

EGBB 241320Z 09010KT 060V120 CAVOK 04/M03 Q1023

24/02/2018, 13:42:35

Description
Results
Thomas Cook Airlines Logo
Number of Pilots based at EGBB
1 Pilots Based here
Number of Thomas Cook Airlines Flights Departed from EGBB
0 Flights Departed
Number of Thomas Cook Airlines Flights Arrived at EGBB
0 Flights Arrived
Number of Thomas Cook Airlines Schedules Departing from EGBB
12 Schedules
Number of Thomas Cook Airlines Schedules Arriving at EGBB
16 Schedules
Number of Thomas Cook Airlines Schedules Departing from EGBB availible today
2 Schedules Today
Number of Thomas Cook Airlines Schedules Arriving at EGBB availible today
2 Schedules Today
Average Landing Rate at EGBB
-226 fpm
Thomas Cook Airlines Average Landing Rate at EGBB
0 fpm
Total Fuel Purchased at EGBB by Thomas Cook Airlines
0.00 kgs / 0.00 lbs

Pilots Based at EGBB


Pilot ID
Pilot Name
Pilot Rank
No. of Flights
No. of Flying Hours
Dave Butler
17
17.48
Content